Time;durP1;ratioP1;P1;durP2;ratioP2;P2;SDS_P1;SDS_P2;PMS_P1;PMS_P2;Temp;Humidity;BMP_temperature;BMP_pressure;BME280_temperature;BME280_humidity;BME280_pressure;Samples;Min_cycle;Max_cycle;Signal;HPM_P1;HPM_P2
2023/09/23 00:01:37;;;;;;;2.13;0.80;;;;;;;;;;4972697;28;20122;-63
2023/09/23 00:04:04;;;;;;;2.47;1.00;;;;;;;;;;4973278;28;20054;-63
2023/09/23 00:06:31;;;;;;;1.83;0.80;;;;;;;;;;4966734;28;20126;-63
2023/09/23 00:08:57;;;;;;;4.88;0.90;;;;;;;;;;4971531;28;20054;-63
2023/09/23 00:11:24;;;;;;;2.45;0.80;;;;;;;;;;4982420;28;20431;-61
2023/09/23 00:13:51;;;;;;;3.22;0.90;;;;;;;;;;4977714;28;20058;-62
2023/09/23 00:16:17;;;;;;;1.10;0.75;;;;;;;;;;4975196;28;20073;-63
2023/09/23 00:18:45;;;;;;;2.55;0.80;;;;;;;;;;4991480;28;20082;-62
2023/09/23 00:21:13;;;;;;;1.42;0.70;;;;;;;;;;4983766;28;20129;-62
2023/09/23 00:23:40;;;;;;;2.47;0.80;;;;;;;;;;4969466;28;20047;-62
2023/09/23 00:26:08;;;;;;;2.53;0.80;;;;;;;;;;4960899;28;20530;-63
2023/09/23 00:28:34;;;;;;;3.20;1.02;;;;;;;;;;4987048;28;20109;-63
2023/09/23 00:31:09;;;;;;;1.67;0.70;;;;;;;;;;4978996;28;20175;-64
2023/09/23 00:33:37;;;;;;;3.17;0.90;;;;;;;;;;4961387;28;20062;-64
2023/09/23 00:36:07;;;;;;;2.33;0.85;;;;;;;;;;4972481;28;20047;-63
2023/09/23 00:38:34;;;;;;;2.40;1.00;;;;;;;;;;4972413;28;20410;-64
2023/09/23 00:41:01;;;;;;;2.40;0.80;;;;;;;;;;4974375;28;20137;-63
2023/09/23 00:43:27;;;;;;;3.00;1.00;;;;;;;;;;4986054;28;20047;-64
2023/09/23 00:45:55;;;;;;;2.17;1.00;;;;;;;;;;4980303;28;20121;-62
2023/09/23 00:48:23;;;;;;;1.83;1.20;;;;;;;;;;4964639;28;20061;-63
2023/09/23 00:50:51;;;;;;;2.40;1.08;;;;;;;;;;4964331;28;20094;-63
2023/09/23 00:53:21;;;;;;;2.65;0.82;;;;;;;;;;4972338;28;20055;-63
2023/09/23 00:55:52;;;;;;;2.55;1.20;;;;;;;;;;4964063;28;20051;-64
2023/09/23 00:58:20;;;;;;;;;;;;;;;;;;4966365;28;20133;-64
2023/09/23 01:00:48;;;;;;;1.33;0.75;;;;;;;;;;4972272;28;19929;-64
2023/09/23 01:03:16;;;;;;;2.30;1.00;;;;;;;;;;4972242;28;20047;-63
2023/09/23 01:05:43;;;;;;;1.55;0.70;;;;;;;;;;4966104;28;20047;-63
2023/09/23 01:08:12;;;;;;;1.73;0.70;;;;;;;;;;4980699;28;20077;-63
2023/09/23 01:10:40;;;;;;;2.42;0.80;;;;;;;;;;4982296;28;20046;-63
2023/09/23 01:13:16;;;;;;;1.50;0.70;;;;;;;;;;4988184;28;20073;-63
2023/09/23 01:15:42;;;;;;;2.08;1.00;;;;;;;;;;4984029;28;20434;-63
2023/09/23 01:18:14;;;;;;;1.35;0.60;;;;;;;;;;4981690;28;20043;-64
2023/09/23 01:20:42;;;;;;;2.40;0.80;;;;;;;;;;4967623;28;20496;-62
2023/09/23 01:23:10;;;;;;;1.80;0.77;;;;;;;;;;4967891;28;20054;-62
2023/09/23 01:25:37;;;;;;;2.00;0.68;;;;;;;;;;4975852;28;20058;-63
2023/09/23 01:28:08;;;;;;;1.63;0.70;;;;;;;;;;4975693;28;20063;-63
2023/09/23 01:30:35;;;;;;;1.48;0.60;;;;;;;;;;4981195;28;20129;-62
2023/09/23 01:33:05;;;;;;;2.00;0.75;;;;;;;;;;4973724;28;20053;-63
2023/09/23 01:35:32;;;;;;;1.60;0.83;;;;;;;;;;4977058;28;20047;-63
2023/09/23 01:37:59;;;;;;;1.63;0.70;;;;;;;;;;4991016;28;20101;-62
2023/09/23 01:40:29;;;;;;;1.73;0.60;;;;;;;;;;4981563;28;20061;-63
2023/09/23 01:42:57;;;;;;;2.80;1.15;;;;;;;;;;4965765;28;20051;-62
2023/09/23 01:45:25;;;;;;;1.55;0.70;;;;;;;;;;4980983;28;20042;-63
2023/09/23 01:47:56;;;;;;;2.17;0.80;;;;;;;;;;4984956;28;20047;-63
2023/09/23 01:50:23;;;;;;;2.25;0.95;;;;;;;;;;4975254;28;20047;-63
2023/09/23 01:52:50;;;;;;;1.42;0.57;;;;;;;;;;4975262;28;20134;-63
2023/09/23 01:55:17;;;;;;;2.58;0.70;;;;;;;;;;4975287;28;20121;-63
2023/09/23 01:57:47;;;;;;;2.30;0.90;;;;;;;;;;4967112;28;20534;-63
2023/09/23 02:00:22;;;;;;;1.73;0.70;;;;;;;;;;4992409;28;20042;-62
2023/09/23 02:02:49;;;;;;;3.42;0.70;;;;;;;;;;4968934;28;20055;-63
2023/09/23 02:05:18;;;;;;;1.70;0.63;;;;;;;;;;4968090;28;20050;-65
2023/09/23 02:07:47;;;;;;;1.27;0.60;;;;;;;;;;4975144;28;20450;-64
2023/09/23 02:10:15;;;;;;;1.83;0.60;;;;;;;;;;4956877;28;20058;-63
2023/09/23 02:12:42;;;;;;;1.20;0.60;;;;;;;;;;4977726;28;20046;-63
2023/09/23 02:15:10;;;;;;;2.70;0.70;;;;;;;;;;4973746;28;20142;-63
2023/09/23 02:17:37;;;;;;;1.20;0.47;;;;;;;;;;4971549;28;20058;-63
2023/09/23 02:20:09;;;;;;;1.38;0.60;;;;;;;;;;4970576;28;20062;-62
2023/09/23 02:22:37;;;;;;;0.82;0.60;;;;;;;;;;4978818;28;20439;-63
2023/09/23 02:25:07;;;;;;;1.63;0.77;;;;;;;;;;4981395;28;20066;-63
2023/09/23 02:27:34;;;;;;;;;;;;;;;;;;4974297;28;20053;-62
2023/09/23 02:30:04;;;;;;;2.00;0.60;;;;;;;;;;4976914;28;19944;-63
2023/09/23 02:32:32;;;;;;;2.58;0.90;;;;;;;;;;4987670;28;20078;-62
2023/09/23 02:34:58;;;;;;;2.55;0.70;;;;;;;;;;4970946;28;20454;-63
2023/09/23 02:37:26;;;;;;;1.48;0.60;;;;;;;;;;4985441;28;20100;-63
2023/09/23 02:39:56;;;;;;;1.90;0.63;;;;;;;;;;4974901;28;20043;-63
2023/09/23 02:42:22;;;;;;;2.28;0.90;;;;;;;;;;4974942;28;20125;-63
2023/09/23 02:44:49;;;;;;;0.73;0.43;;;;;;;;;;4974668;28;20047;-63
2023/09/23 02:47:16;;;;;;;1.67;0.60;;;;;;;;;;4972189;28;20133;-63
2023/09/23 02:49:45;;;;;;;0.50;0.40;;;;;;;;;;4974735;28;20109;-61
2023/09/23 02:52:12;;;;;;;4.40;0.70;;;;;;;;;;4986437;28;20062;-62
2023/09/23 02:54:39;;;;;;;4.32;0.93;;;;;;;;;;4987680;28;20046;-62
2023/09/23 02:57:08;;;;;;;1.35;0.52;;;;;;;;;;4988700;28;20086;-63
2023/09/23 02:59:41;;;;;;;1.83;0.73;;;;;;;;;;4978841;28;20065;-63
2023/09/23 03:02:08;;;;;;;1.17;0.50;;;;;;;;;;4980409;28;20514;-64
2023/09/23 03:04:35;;;;;;;2.78;0.65;;;;;;;;;;4983012;28;20047;-61
2023/09/23 03:07:06;;;;;;;1.75;0.70;;;;;;;;;;4972271;28;20555;-64
2023/09/23 03:09:33;;;;;;;1.65;0.70;;;;;;;;;;4986203;28;20112;-62
2023/09/23 03:12:01;;;;;;;1.67;0.65;;;;;;;;;;4968379;28;20050;-62
2023/09/23 03:14:36;;;;;;;2.15;0.80;;;;;;;;;;4977710;28;20149;-62
2023/09/23 03:17:03;;;;;;;1.10;0.57;;;;;;;;;;4980059;28;20058;-63
2023/09/23 03:19:32;;;;;;;1.52;0.70;;;;;;;;;;4968228;28;20078;-63
2023/09/23 03:21:59;;;;;;;2.95;0.80;;;;;;;;;;4965366;28;20047;-63
2023/09/23 03:24:29;;;;;;;2.40;0.60;;;;;;;;;;4965446;28;20514;-62
2023/09/23 03:26:58;;;;;;;1.75;0.73;;;;;;;;;;4964315;28;20046;-61
2023/09/23 03:29:28;;;;;;;2.53;1.33;;;;;;;;;;4977329;28;20493;-62
2023/09/23 03:31:55;;;;;;;2.03;0.70;;;;;;;;;;4967612;28;20050;-62
2023/09/23 03:34:23;;;;;;;1.98;0.85;;;;;;;;;;4967373;28;20469;-64
2023/09/23 03:36:51;;;;;;;2.00;0.73;;;;;;;;;;4956955;28;20111;-64
2023/09/23 03:39:18;;;;;;;3.58;1.10;;;;;;;;;;4973253;28;20051;-64
2023/09/23 03:41:47;;;;;;;2.97;1.13;;;;;;;;;;4965254;28;20053;-63
2023/09/23 03:44:15;;;;;;;2.28;0.80;;;;;;;;;;4973371;28;20042;-63
2023/09/23 03:46:43;;;;;;;3.70;0.70;;;;;;;;;;4965250;28;20047;-63
2023/09/23 03:49:10;;;;;;;1.27;0.77;;;;;;;;;;4969283;28;20431;-63
2023/09/23 03:51:37;;;;;;;3.00;0.70;;;;;;;;;;4963901;28;20047;-63
2023/09/23 03:54:04;;;;;;;1.95;0.90;;;;;;;;;;4984434;28;20054;-63
2023/09/23 03:56:33;;;;;;;1.85;0.85;;;;;;;;;;4978367;28;20520;-63
2023/09/23 03:59:01;;;;;;;3.03;1.52;;;;;;;;;;4972804;28;20053;-62
2023/09/23 04:01:28;;;;;;;2.35;1.00;;;;;;;;;;4964853;28;20047;-62
2023/09/23 04:03:56;;;;;;;3.17;0.80;;;;;;;;;;4972678;28;20043;-62
2023/09/23 04:06:23;;;;;;;3.65;1.10;;;;;;;;;;4973308;28;20399;-62
2023/09/23 04:08:50;;;;;;;2.00;0.80;;;;;;;;;;4972566;28;20206;-62
2023/09/23 04:11:18;;;;;;;1.85;0.80;;;;;;;;;;4984835;28;20101;-63
2023/09/23 04:13:46;;;;;;;3.00;1.00;;;;;;;;;;4974420;28;20058;-63
2023/09/23 04:16:14;;;;;;;4.68;2.00;;;;;;;;;;4983685;28;20070;-63
2023/09/23 04:18:41;;;;;;;2.75;1.20;;;;;;;;;;4965199;28;20462;-63
2023/09/23 04:21:09;;;;;;;1.77;0.90;;;;;;;;;;4964801;28;20053;-65
2023/09/23 04:23:36;;;;;;;2.88;1.20;;;;;;;;;;4973068;28;20521;-63
2023/09/23 04:26:03;;;;;;;3.15;1.40;;;;;;;;;;4964702;28;20043;-62
2023/09/23 04:28:29;;;;;;;3.67;1.30;;;;;;;;;;4966448;28;20106;-63
2023/09/23 04:30:57;;;;;;;2.75;1.13;;;;;;;;;;4962869;28;20055;-63
2023/09/23 04:33:27;;;;;;;2.75;1.20;;;;;;;;;;4959380;28;20103;-63
2023/09/23 04:35:56;;;;;;;2.63;1.10;;;;;;;;;;4969302;28;20515;-62
2023/09/23 04:38:23;;;;;;;2.58;1.00;;;;;;;;;;4966470;28;20050;-63
2023/09/23 04:40:50;;;;;;;3.10;1.40;;;;;;;;;;4972375;28;20051;-65
2023/09/23 04:43:17;;;;;;;3.38;1.60;;;;;;;;;;4972254;28;20138;-63
2023/09/23 04:45:45;;;;;;;3.20;1.30;;;;;;;;;;4964620;28;20051;-61
2023/09/23 04:48:11;;;;;;;2.65;1.20;;;;;;;;;;4976612;28;20046;-63
2023/09/23 04:50:41;;;;;;;2.67;1.40;;;;;;;;;;4968267;28;20082;-61
2023/09/23 04:53:08;;;;;;;4.57;1.35;;;;;;;;;;4968230;28;20466;-62
2023/09/23 04:55:35;;;;;;;2.80;1.30;;;;;;;;;;4976748;28;20142;-63
2023/09/23 04:58:01;;;;;;;2.42;1.30;;;;;;;;;;4976120;28;20082;-62
2023/09/23 05:00:32;;;;;;;3.25;1.40;;;;;;;;;;4976066;28;20047;-64
2023/09/23 05:02:59;;;;;;;3.40;1.45;;;;;;;;;;4968340;28;20419;-62
2023/09/23 05:05:26;;;;;;;3.13;1.40;;;;;;;;;;4970857;28;20043;-62
2023/09/23 05:07:54;;;;;;;2.63;1.33;;;;;;;;;;4973953;28;20046;-63
2023/09/23 05:10:21;;;;;;;3.45;1.38;;;;;;;;;;4975835;28;20149;-62
2023/09/23 05:12:47;;;;;;;3.40;1.45;;;;;;;;;;4967696;28;20078;-62
2023/09/23 05:15:15;;;;;;;4.10;1.33;;;;;;;;;;4968071;28;20130;-64
2023/09/23 05:17:43;;;;;;;4.07;1.55;;;;;;;;;;4960442;28;20047;-62
2023/09/23 05:20:14;;;;;;;4.72;1.23;;;;;;;;;;4965017;28;20495;-63
2023/09/23 05:22:40;;;;;;;;;;;;;;;;;;4979942;28;20043;-63
2023/09/23 05:25:11;;;;;;;3.20;1.67;;;;;;;;;;4974596;28;19977;-65
2023/09/23 05:27:38;;;;;;;2.35;1.30;;;;;;;;;;4984363;28;20545;-63
2023/09/23 05:30:08;;;;;;;3.15;1.73;;;;;;;;;;4986524;28;20054;-64
2023/09/23 05:32:35;;;;;;;3.70;2.00;;;;;;;;;;4967085;28;20046;-62
2023/09/23 05:35:02;;;;;;;2.58;1.25;;;;;;;;;;4974283;28;20516;-63
2023/09/23 05:37:29;;;;;;;3.15;1.30;;;;;;;;;;4973129;28;20050;-62
2023/09/23 05:39:55;;;;;;;2.85;1.50;;;;;;;;;;4983946;28;20050;-63
2023/09/23 05:42:25;;;;;;;3.40;1.58;;;;;;;;;;4972638;28;20046;-63
2023/09/23 05:44:52;;;;;;;3.85;1.70;;;;;;;;;;4966957;28;20079;-63
2023/09/23 05:47:19;;;;;;;4.40;1.50;;;;;;;;;;4986614;28;20050;-62
2023/09/23 05:49:45;;;;;;;3.05;1.35;;;;;;;;;;4978521;28;20046;-62
2023/09/23 05:52:14;;;;;;;3.53;1.50;;;;;;;;;;4976111;28;20149;-64
2023/09/23 05:54:41;;;;;;;3.60;1.65;;;;;;;;;;4967451;28;20050;-64
2023/09/23 05:57:08;;;;;;;4.35;1.60;;;;;;;;;;4975398;28;20133;-63
2023/09/23 05:59:36;;;;;;;5.93;2.15;;;;;;;;;;4966343;28;20086;-64
2023/09/23 06:02:06;;;;;;;3.55;1.52;;;;;;;;;;4972851;28;20570;-63
2023/09/23 06:04:32;;;;;;;4.25;1.80;;;;;;;;;;4970452;28;20097;-63
2023/09/23 06:06:59;;;;;;;4.45;2.75;;;;;;;;;;4962673;28;20130;-63
2023/09/23 06:09:26;;;;;;;4.40;2.28;;;;;;;;;;4986585;28;20538;-62
2023/09/23 06:11:54;;;;;;;4.13;1.90;;;;;;;;;;4960155;28;20511;-61
2023/09/23 06:14:21;;;;;;;3.03;1.70;;;;;;;;;;4968536;28;20047;-61
2023/09/23 06:16:49;;;;;;;2.60;1.45;;;;;;;;;;4979658;28;20053;-63
2023/09/23 06:19:16;;;;;;;3.47;1.83;;;;;;;;;;4973794;28;20062;-65
2023/09/23 06:21:42;;;;;;;3.67;1.95;;;;;;;;;;4979563;28;20051;-64
2023/09/23 06:24:10;;;;;;;5.53;2.13;;;;;;;;;;4981331;28;20083;-64
2023/09/23 06:26:37;;;;;;;3.75;1.80;;;;;;;;;;4964306;28;20047;-64
2023/09/23 06:29:04;;;;;;;4.45;2.00;;;;;;;;;;4969279;28;20059;-64
2023/09/23 06:31:31;;;;;;;4.93;2.35;;;;;;;;;;4989851;28;20054;-65
2023/09/23 06:33:59;;;;;;;3.75;2.00;;;;;;;;;;4984720;28;20581;-63
2023/09/23 06:36:26;;;;;;;5.32;2.83;;;;;;;;;;4962092;28;20048;-64
2023/09/23 06:38:52;;;;;;;4.25;2.65;;;;;;;;;;4963886;28;20129;-64
2023/09/23 06:41:19;;;;;;;4.45;2.17;;;;;;;;;;4965417;28;20073;-65
2023/09/23 06:43:46;;;;;;;4.28;2.20;;;;;;;;;;4984024;28;20042;-65
2023/09/23 06:46:13;;;;;;;4.07;2.13;;;;;;;;;;4979456;28;20136;-64
2023/09/23 06:48:40;;;;;;;4.03;2.03;;;;;;;;;;4967477;28;20154;-65
2023/09/23 06:51:08;;;;;;;4.32;1.92;;;;;;;;;;4967065;28;20102;-64
2023/09/23 06:53:35;;;;;;;3.90;2.00;;;;;;;;;;4960652;28;20134;-64
2023/09/23 06:56:02;;;;;;;3.88;2.40;;;;;;;;;;4973558;28;20109;-64
2023/09/23 06:58:28;;;;;;;4.07;1.90;;;;;;;;;;4974136;28;20055;-65
2023/09/23 07:00:55;;;;;;;5.28;2.28;;;;;;;;;;4966142;28;20130;-65
2023/09/23 07:03:22;;;;;;;3.00;1.92;;;;;;;;;;4966475;28;20150;-65
2023/09/23 07:05:49;;;;;;;3.58;1.80;;;;;;;;;;4966702;28;20129;-65
2023/09/23 07:08:17;;;;;;;3.90;2.10;;;;;;;;;;4974540;28;20126;-65
2023/09/23 07:10:43;;;;;;;5.45;2.30;;;;;;;;;;4957302;28;20055;-65
2023/09/23 07:13:10;;;;;;;4.90;2.20;;;;;;;;;;4966147;28;20098;-65
2023/09/23 07:15:37;;;;;;;4.38;2.13;;;;;;;;;;4958832;28;20083;-63
2023/09/23 07:18:05;;;;;;;4.38;2.15;;;;;;;;;;4970216;28;20070;-64
2023/09/23 07:20:32;;;;;;;4.82;2.10;;;;;;;;;;4962213;28;20090;-64
2023/09/23 07:22:59;;;;;;;3.65;2.05;;;;;;;;;;4962546;28;20055;-65
2023/09/23 07:25:27;;;;;;;3.83;2.30;;;;;;;;;;4963181;28;20130;-65
2023/09/23 07:27:55;;;;;;;3.65;1.65;;;;;;;;;;4955738;28;20134;-65
2023/09/23 07:30:23;;;;;;;3.17;1.50;;;;;;;;;;4965704;28;20058;-65
2023/09/23 07:32:49;;;;;;;4.28;2.17;;;;;;;;;;4965045;28;20524;-65
2023/09/23 07:35:17;;;;;;;3.22;1.48;;;;;;;;;;4958725;28;20054;-65
2023/09/23 07:37:44;;;;;;;2.92;1.88;;;;;;;;;;4957811;28;20051;-65
2023/09/23 07:40:12;;;;;;;3.80;1.98;;;;;;;;;;4957968;28;20051;-65
2023/09/23 07:42:40;;;;;;;5.28;2.40;;;;;;;;;;4965474;28;20054;-65
2023/09/23 07:45:08;;;;;;;4.22;2.10;;;;;;;;;;4962626;28;20057;-65
2023/09/23 07:47:35;;;;;;;5.28;3.13;;;;;;;;;;4962173;28;20048;-65
2023/09/23 07:50:02;;;;;;;3.80;2.55;;;;;;;;;;4956353;28;20578;-65
2023/09/23 07:52:29;;;;;;;5.15;2.40;;;;;;;;;;4965320;28;20055;-65
2023/09/23 07:54:55;;;;;;;5.15;2.15;;;;;;;;;;4955740;28;20139;-65
2023/09/23 07:57:22;;;;;;;4.07;2.25;;;;;;;;;;4962341;28;20122;-66
2023/09/23 07:59:50;;;;;;;3.80;2.35;;;;;;;;;;4961681;28;20059;-65
2023/09/23 08:02:17;;;;;;;3.47;1.98;;;;;;;;;;4953705;28;20053;-65
2023/09/23 08:04:43;;;;;;;4.57;2.13;;;;;;;;;;4969890;28;20102;-65
2023/09/23 08:07:11;;;;;;;2.88;1.80;;;;;;;;;;4969167;28;20426;-65
2023/09/23 08:09:38;;;;;;;3.80;1.60;;;;;;;;;;4972200;28;20514;-65
2023/09/23 08:12:05;;;;;;;4.05;1.50;;;;;;;;;;4968926;28;20059;-65
2023/09/23 08:14:32;;;;;;;3.58;1.50;;;;;;;;;;4963163;28;20137;-64
2023/09/23 08:17:00;;;;;;;4.30;1.60;;;;;;;;;;4965426;28;20133;-65
2023/09/23 08:19:26;;;;;;;5.28;1.48;;;;;;;;;;4971219;28;20134;-64
2023/09/23 08:21:54;;;;;;;4.15;1.50;;;;;;;;;;4979779;28;20073;-64
2023/09/23 08:24:21;;;;;;;4.53;1.58;;;;;;;;;;4961902;28;20495;-64
2023/09/23 08:26:48;;;;;;;5.63;2.65;;;;;;;;;;4962496;28;20062;-65
2023/09/23 08:29:15;;;;;;;5.45;2.50;;;;;;;;;;4960963;28;20093;-65
2023/09/23 08:31:42;;;;;;;2.97;1.83;;;;;;;;;;4957466;28;20500;-65
2023/09/23 08:34:10;;;;;;;4.68;2.10;;;;;;;;;;4962306;28;20043;-65
2023/09/23 08:36:36;;;;;;;4.03;1.67;;;;;;;;;;4970558;28;20666;-65
2023/09/23 08:39:05;;;;;;;2.78;1.70;;;;;;;;;;4971211;28;20129;-65
2023/09/23 08:41:32;;;;;;;4.22;1.50;;;;;;;;;;4963622;28;20423;-65
2023/09/23 08:44:04;;;;;;;3.47;1.55;;;;;;;;;;4963252;28;20134;-65
2023/09/23 08:46:32;;;;;;;2.72;1.35;;;;;;;;;;4968541;28;20456;-65
2023/09/23 08:48:59;;;;;;;4.85;1.63;;;;;;;;;;4968110;28;20058;-65
2023/09/23 08:51:28;;;;;;;3.83;1.70;;;;;;;;;;4964582;28;20082;-65
2023/09/23 08:53:55;;;;;;;3.10;1.48;;;;;;;;;;4964204;28;20042;-66
2023/09/23 08:56:22;;;;;;;3.45;1.23;;;;;;;;;;4965814;28;20484;-65
2023/09/23 08:58:49;;;;;;;3.83;1.35;;;;;;;;;;4963840;28;20053;-65
2023/09/23 09:01:16;;;;;;;2.55;1.30;;;;;;;;;;4958615;28;20316;-65
2023/09/23 09:03:44;;;;;;;3.35;1.13;;;;;;;;;;4972178;28;20467;-64
2023/09/23 09:06:17;;;;;;;3.10;1.20;;;;;;;;;;4973344;28;20082;-64
2023/09/23 09:08:46;;;;;;;3.70;0.98;;;;;;;;;;4977395;28;20046;-65
2023/09/23 09:11:21;;;;;;;3.42;1.52;;;;;;;;;;4971511;28;20070;-64
2023/09/23 09:13:49;;;;;;;2.00;0.73;;;;;;;;;;4975385;28;20133;-65
2023/09/23 09:16:16;;;;;;;4.18;1.10;;;;;;;;;;4961225;28;20051;-64
2023/09/23 09:18:43;;;;;;;3.85;1.00;;;;;;;;;;4968781;28;20050;-65
2023/09/23 09:21:10;;;;;;;2.50;0.90;;;;;;;;;;4971957;28;20142;-65
2023/09/23 09:23:38;;;;;;;3.08;1.00;;;;;;;;;;4962716;28;20043;-65
2023/09/23 09:26:06;;;;;;;3.17;1.20;;;;;;;;;;4961670;28;20919;-64
2023/09/23 09:28:33;;;;;;;3.72;1.10;;;;;;;;;;4975056;28;20065;-64
2023/09/23 09:30:59;;;;;;;4.20;1.10;;;;;;;;;;4959209;28;20169;-64
2023/09/23 09:33:29;;;;;;;2.03;0.90;;;;;;;;;;4960593;28;20069;-63
2023/09/23 09:35:56;;;;;;;2.67;1.50;;;;;;;;;;4972660;28;20061;-65
2023/09/23 09:38:25;;;;;;;4.70;1.25;;;;;;;;;;4968961;28;20042;-66
2023/09/23 09:40:56;;;;;;;3.17;1.10;;;;;;;;;;4970657;28;20061;-69
2023/09/23 09:43:26;;;;;;;11.35;4.68;;;;;;;;;;4972906;28;20129;-67
2023/09/23 09:45:54;;;;;;;91.40;34.67;;;;;;;;;;4968805;28;20087;-67
2023/09/23 09:48:25;;;;;;;16.52;7.22;;;;;;;;;;4966687;28;20050;-67
2023/09/23 09:50:54;;;;;;;7.40;2.58;;;;;;;;;;4965515;28;20046;-64
2023/09/23 09:53:22;;;;;;;4.18;1.80;;;;;;;;;;4964028;28;20054;-65
2023/09/23 09:55:49;;;;;;;3.03;1.20;;;;;;;;;;4972138;28;20101;-65
2023/09/23 09:58:16;;;;;;;2.97;1.25;;;;;;;;;;4975958;28;20084;-65
2023/09/23 10:00:50;;;;;;;3.13;1.40;;;;;;;;;;4971562;28;20078;-65
2023/09/23 10:03:16;;;;;;;3.15;0.90;;;;;;;;;;4971425;28;20438;-65
2023/09/23 10:05:46;;;;;;;3.40;1.23;;;;;;;;;;4971972;28;20075;-65
2023/09/23 10:08:15;;;;;;;2.85;0.98;;;;;;;;;;4968921;28;20069;-65
2023/09/23 10:10:47;;;;;;;2.33;0.93;;;;;;;;;;4977906;28;20518;-65
2023/09/23 10:13:15;;;;;;;2.05;1.02;;;;;;;;;;4970207;28;20065;-64
2023/09/23 10:15:43;;;;;;;2.92;1.25;;;;;;;;;;4969139;28;20074;-65
2023/09/23 10:18:13;;;;;;;4.80;1.90;;;;;;;;;;4971938;28;20095;-65
2023/09/23 10:20:43;;;;;;;2.60;1.10;;;;;;;;;;4967329;28;20053;-66
2023/09/23 10:23:11;;;;;;;2.13;1.10;;;;;;;;;;4963731;28;20053;-65
2023/09/23 10:25:39;;;;;;;2.50;0.90;;;;;;;;;;4961612;28;20051;-66
2023/09/23 10:28:07;;;;;;;2.60;0.98;;;;;;;;;;4964751;28;20149;-65
2023/09/23 10:30:35;;;;;;;3.53;1.02;;;;;;;;;;4964372;28;20126;-65
2023/09/23 10:33:03;;;;;;;2.72;1.40;;;;;;;;;;4963787;28;20050;-65
2023/09/23 10:35:31;;;;;;;2.75;1.30;;;;;;;;;;4969946;28;20043;-64
2023/09/23 10:37:58;;;;;;;3.42;1.40;;;;;;;;;;4973160;28;20077;-65
2023/09/23 10:40:25;;;;;;;4.50;2.20;;;;;;;;;;4970346;28;20130;-64
2023/09/23 10:42:51;;;;;;;7.40;1.83;;;;;;;;;;4963236;28;20077;-68
2023/09/23 10:45:20;;;;;;;4.40;1.50;;;;;;;;;;4965028;28;20064;-66
2023/09/23 10:47:46;;;;;;;4.05;1.30;;;;;;;;;;4966243;28;20043;-67
2023/09/23 10:50:13;;;;;;;2.80;1.00;;;;;;;;;;4962442;28;20134;-67
2023/09/23 10:52:42;;;;;;;3.40;1.13;;;;;;;;;;4967334;28;20047;-66
2023/09/23 10:55:10;;;;;;;2.33;0.90;;;;;;;;;;4966458;28;20133;-66
2023/09/23 10:57:38;;;;;;;1.67;0.77;;;;;;;;;;4971260;28;20043;-66
2023/09/23 11:00:16;;;;;;;1.95;0.77;;;;;;;;;;4970341;28;20047;-66
2023/09/23 11:02:44;;;;;;;2.67;0.90;;;;;;;;;;4971498;28;20050;-66
2023/09/23 11:05:12;;;;;;;1.67;0.80;;;;;;;;;;4955331;28;20411;-66
2023/09/23 11:07:42;;;;;;;4.05;0.90;;;;;;;;;;4963018;28;20043;-66
2023/09/23 11:10:12;;;;;;;2.50;0.80;;;;;;;;;;4971445;28;20139;-63
2023/09/23 11:12:43;;;;;;;3.28;1.00;;;;;;;;;;4959021;28;20478;-65
2023/09/23 11:15:12;;;;;;;23.38;2.22;;;;;;;;;;4958187;28;20061;-66
2023/09/23 11:17:41;;;;;;;3.25;1.13;;;;;;;;;;4966693;28;20130;-66
2023/09/23 11:20:10;;;;;;;1.13;0.65;;;;;;;;;;4962569;28;20043;-65
2023/09/23 11:22:38;;;;;;;3.70;0.90;;;;;;;;;;4961218;28;20050;-66
2023/09/23 11:25:11;;;;;;;2.08;1.23;;;;;;;;;;4973796;28;20438;-64
2023/09/23 11:27:39;;;;;;;3.65;0.90;;;;;;;;;;4966475;28;20500;-64
2023/09/23 11:30:07;;;;;;;2.33;0.80;;;;;;;;;;4954214;28;20065;-64
2023/09/23 11:32:34;;;;;;;1.75;1.00;;;;;;;;;;4954233;28;20048;-64
2023/09/23 11:35:02;;;;;;;1.85;0.90;;;;;;;;;;4954466;28;20077;-64
2023/09/23 11:37:29;;;;;;;2.60;1.15;;;;;;;;;;4954254;28;20607;-65
2023/09/23 11:39:56;;;;;;;3.80;1.60;;;;;;;;;;4953921;28;20106;-64
2023/09/23 11:42:24;;;;;;;4.80;1.33;;;;;;;;;;4953962;28;20079;-65
2023/09/23 11:44:51;;;;;;;2.00;0.80;;;;;;;;;;4954020;28;20067;-65
2023/09/23 11:47:20;;;;;;;3.10;1.20;;;;;;;;;;4954104;28;20094;-65
2023/09/23 11:49:47;;;;;;;4.00;2.05;;;;;;;;;;4962218;28;20070;-64
2023/09/23 11:52:14;;;;;;;2.75;1.20;;;;;;;;;;4961604;28;20578;-64
2023/09/23 11:54:40;;;;;;;3.72;1.00;;;;;;;;;;4953961;28;20483;-64
2023/09/23 11:57:08;;;;;;;2.33;0.90;;;;;;;;;;4964338;28;20047;-64
2023/09/23 11:59:36;;;;;;;2.38;1.00;;;;;;;;;;4958465;28;20047;-66
2023/09/23 12:02:03;;;;;;;2.85;0.85;;;;;;;;;;4953513;28;20134;-63
2023/09/23 12:04:30;;;;;;;2.97;1.08;;;;;;;;;;4953839;28;20070;-64
2023/09/23 12:06:57;;;;;;;1.73;0.90;;;;;;;;;;4953694;28;20119;-63
2023/09/23 12:09:23;;;;;;;2.70;1.13;;;;;;;;;;4952989;28;20130;-65
2023/09/23 12:11:50;;;;;;;2.90;0.90;;;;;;;;;;4953471;28;20059;-64
2023/09/23 12:14:18;;;;;;;2.33;0.88;;;;;;;;;;4953990;28;20134;-63
2023/09/23 12:16:47;;;;;;;2.42;0.90;;;;;;;;;;4953708;28;20062;-63
2023/09/23 12:19:13;;;;;;;2.72;1.10;;;;;;;;;;4953487;28;20134;-65
2023/09/23 12:21:40;;;;;;;2.30;0.77;;;;;;;;;;4953505;28;20106;-65
2023/09/23 12:24:07;;;;;;;1.52;0.88;;;;;;;;;;4953448;28;20051;-64
2023/09/23 12:26:35;;;;;;;2.58;1.05;;;;;;;;;;4953663;28;20486;-63
2023/09/23 12:29:02;;;;;;;2.63;1.10;;;;;;;;;;4963551;28;20078;-63
2023/09/23 12:31:28;;;;;;;3.20;1.10;;;;;;;;;;4959044;28;20051;-64
2023/09/23 12:33:56;;;;;;;2.60;1.00;;;;;;;;;;4953385;28;20129;-64
2023/09/23 12:36:24;;;;;;;3.20;0.90;;;;;;;;;;4958512;28;20086;-65
2023/09/23 12:38:50;;;;;;;3.50;1.00;;;;;;;;;;4963803;28;20562;-64
2023/09/23 12:41:17;;;;;;;3.78;1.30;;;;;;;;;;4953450;28;20487;-64
2023/09/23 12:43:44;;;;;;;3.28;1.00;;;;;;;;;;4953441;28;20059;-65
2023/09/23 12:46:10;;;;;;;3.15;1.00;;;;;;;;;;4953593;28;20047;-64
2023/09/23 12:48:37;;;;;;;2.50;1.10;;;;;;;;;;4953117;28;20058;-64
2023/09/23 12:51:05;;;;;;;2.08;1.05;;;;;;;;;;4955800;28;20481;-64
2023/09/23 12:53:32;;;;;;;2.28;1.02;;;;;;;;;;4966579;28;20055;-64
2023/09/23 12:55:58;;;;;;;2.67;0.90;;;;;;;;;;4953079;28;20086;-64
2023/09/23 12:58:25;;;;;;;3.30;1.00;;;;;;;;;;4953403;28;20574;-63
2023/09/23 13:00:52;;;;;;;2.00;0.73;;;;;;;;;;4953022;28;20469;-63
2023/09/23 13:03:18;;;;;;;2.35;1.00;;;;;;;;;;4952948;28;20061;-65
2023/09/23 13:05:45;;;;;;;2.45;0.90;;;;;;;;;;4953094;28;20142;-62
2023/09/23 13:08:14;;;;;;;1.52;0.82;;;;;;;;;;4954158;28;20484;-65
2023/09/23 13:10:41;;;;;;;2.13;0.90;;;;;;;;;;4956222;28;20050;-65
2023/09/23 13:13:08;;;;;;;2.28;0.98;;;;;;;;;;4956750;28;20503;-65
2023/09/23 13:15:34;;;;;;;3.33;1.20;;;;;;;;;;4956731;28;20135;-65
2023/09/23 13:18:02;;;;;;;3.10;1.00;;;;;;;;;;4956890;28;20131;-65
2023/09/23 13:20:29;;;;;;;3.13;1.35;;;;;;;;;;4962457;28;20078;-64
2023/09/23 13:22:55;;;;;;;3.17;1.27;;;;;;;;;;4966363;28;20044;-65
2023/09/23 13:25:25;;;;;;;2.80;0.90;;;;;;;;;;4956512;28;20051;-64
2023/09/23 13:27:52;;;;;;;3.75;1.05;;;;;;;;;;4956596;28;20049;-65
2023/09/23 13:30:19;;;;;;;4.18;1.23;;;;;;;;;;4956472;28;20070;-64
2023/09/23 13:32:46;;;;;;;2.85;0.88;;;;;;;;;;4956696;28;20143;-64
2023/09/23 13:35:13;;;;;;;2.60;1.30;;;;;;;;;;4956576;28;20130;-63
2023/09/23 13:37:39;;;;;;;3.35;1.10;;;;;;;;;;4956240;28;20051;-64
2023/09/23 13:40:07;;;;;;;3.95;1.35;;;;;;;;;;4956135;28;20122;-64
2023/09/23 13:42:35;;;;;;;2.15;0.90;;;;;;;;;;4956313;28;20073;-64
2023/09/23 13:45:02;;;;;;;2.45;1.05;;;;;;;;;;4956276;28;20471;-64
2023/09/23 13:47:29;;;;;;;2.85;1.00;;;;;;;;;;4956188;28;20047;-64
2023/09/23 13:49:55;;;;;;;2.30;0.90;;;;;;;;;;4955960;28;20047;-64
2023/09/23 13:52:22;;;;;;;3.15;1.52;;;;;;;;;;4956164;28;20137;-64
2023/09/23 13:54:49;;;;;;;3.20;0.90;;;;;;;;;;4956050;28;20085;-64
2023/09/23 13:57:15;;;;;;;3.63;1.35;;;;;;;;;;4955984;28;20130;-63
2023/09/23 13:59:43;;;;;;;4.25;1.30;;;;;;;;;;4955833;28;20051;-63
2023/09/23 14:02:15;;;;;;;2.53;1.27;;;;;;;;;;4967182;28;20168;-63
2023/09/23 14:04:42;;;;;;;3.63;1.20;;;;;;;;;;4975502;28;20183;-64
2023/09/23 14:07:09;;;;;;;2.08;0.98;;;;;;;;;;4975041;28;20053;-63
2023/09/23 14:09:36;;;;;;;2.03;0.95;;;;;;;;;;4970422;28;20043;-64
2023/09/23 14:12:02;;;;;;;3.55;1.50;;;;;;;;;;4959046;28;20098;-64
2023/09/23 14:14:29;;;;;;;3.88;1.20;;;;;;;;;;4965073;28;20141;-65
2023/09/23 14:16:57;;;;;;;2.65;1.20;;;;;;;;;;4965554;28;20053;-65
2023/09/23 14:19:24;;;;;;;2.33;1.08;;;;;;;;;;4963344;28;20057;-65
2023/09/23 14:21:51;;;;;;;2.65;1.10;;;;;;;;;;4970985;28;20534;-64
2023/09/23 14:24:17;;;;;;;2.85;1.05;;;;;;;;;;4975514;28;20050;-65
2023/09/23 14:26:44;;;;;;;3.25;1.00;;;;;;;;;;4964565;28;20126;-64
2023/09/23 14:29:11;;;;;;;3.13;1.27;;;;;;;;;;4967255;28;20051;-65
2023/09/23 14:31:37;;;;;;;1.83;0.85;;;;;;;;;;4967056;28;20078;-64
2023/09/23 14:34:06;;;;;;;2.25;0.90;;;;;;;;;;4963414;28;20101;-65
2023/09/23 14:36:33;;;;;;;2.63;1.20;;;;;;;;;;4977589;28;20113;-65
2023/09/23 14:39:03;;;;;;;3.38;1.02;;;;;;;;;;4984721;28;20054;-65
2023/09/23 14:41:32;;;;;;;3.60;1.00;;;;;;;;;;4983985;28;20092;-63
2023/09/23 14:43:59;;;;;;;2.72;1.00;;;;;;;;;;4986693;28;20406;-64
2023/09/23 14:46:26;;;;;;;3.13;1.10;;;;;;;;;;4964776;28;20134;-64